Time;durP1;ratioP1;P1;durP2;ratioP2;P2;SDS_P1;SDS_P2;PMS_P1;PMS_P2;Temp;Humidity;BMP_temperature;BMP_pressure;BME280_temperature;BME280_humidity;BME280_pressure;Samples;Min_cycle;Max_cycle;Signal;HPM_P1;HPM_P2
2021/05/04 00:01:44;;;;;;;8.60;5.90;;;;;;;3.22;75.39;100469.66;106032;1098;78506;-70
2021/05/04 00:06:25;;;;;;;8.50;6.50;;;;;;;3.16;75.38;100461.39;104256;1099;76369;-67
2021/05/04 00:08:31;;;;;;;11.70;6.70;;;;;;;3.12;75.43;100459.97;104130;1107;77984;-67
2021/05/04 00:10:36;;;;;;;9.80;6.60;;;;;;;3.06;75.40;100453.36;104316;1099;78900;-67
2021/05/04 00:12:41;;;;;;;7.50;6.30;;;;;;;3.03;75.45;100455.45;104327;1104;77852;-66
2021/05/04 00:14:47;;;;;;;8.10;6.00;;;;;;;2.96;75.75;100447.19;104273;1104;78179;-66
2021/05/04 00:16:52;;;;;;;8.90;5.90;;;;;;;2.95;75.32;100446.34;104332;1104;77607;-66
2021/05/04 00:19:00;;;;;;;9.10;5.60;;;;;;;2.90;76.14;100445.07;104325;1104;78737;-66
2021/05/04 00:21:06;;;;;;;7.90;5.70;;;;;;;2.84;75.96;100441.14;104311;1104;78607;-65
2021/05/04 00:23:11;;;;;;;7.00;5.40;;;;;;;2.86;76.11;100430.31;104325;1104;78185;-66
2021/05/04 00:25:19;;;;;;;10.00;5.50;;;;;;;2.88;76.21;100433.70;104335;1104;77778;-65
2021/05/04 00:27:25;;;;;;;8.80;5.80;;;;;;;2.92;75.85;100445.77;104318;1104;77657;-65
2021/05/04 00:29:30;;;;;;;8.60;5.20;;;;;;;2.91;76.30;100447.59;104345;1104;76525;-72
2021/05/04 00:31:35;;;;;;;8.70;5.40;;;;;;;2.94;76.61;100446.46;104273;1104;78985;-72
2021/05/04 00:33:40;;;;;;;8.40;5.60;;;;;;;2.92;76.57;100435.94;104341;1104;78906;-72
2021/05/04 00:35:45;;;;;;;7.90;5.60;;;;;;;2.92;76.66;100440.43;104281;1104;77799;-71
2021/05/04 00:37:50;;;;;;;8.60;6.00;;;;;;;2.91;76.75;100442.25;104345;1104;76864;-70
2021/05/04 00:39:55;;;;;;;8.40;5.70;;;;;;;2.93;77.13;100442.13;104301;1105;77471;-66
2021/05/04 00:42:04;;;;;;;8.50;5.80;;;;;;;2.96;76.92;100434.70;104333;1104;78317;-66
2021/05/04 00:44:09;;;;;;;9.60;6.30;;;;;;;2.98;76.96;100435.39;104333;1104;77557;-65
2021/05/04 00:46:14;;;;;;;9.00;5.80;;;;;;;2.97;77.04;100433.69;104282;1104;76853;-70
2021/05/04 00:48:20;;;;;;;9.50;6.50;;;;;;;2.93;76.89;100431.45;104307;1104;79171;-70
2021/05/04 00:50:25;;;;;;;8.60;5.50;;;;;;;2.92;77.00;100419.94;104284;1099;78864;-70
2021/05/04 00:52:31;;;;;;;7.10;5.40;;;;;;;2.95;77.17;100425.00;104271;1104;77185;-70
2021/05/04 00:54:36;;;;;;;9.20;5.80;;;;;;;2.96;77.16;100421.36;104303;1104;77348;-66
2021/05/04 00:56:41;;;;;;;9.30;5.70;;;;;;;2.99;77.17;100415.70;104310;1104;78833;-66
2021/05/04 00:58:51;;;;;;;9.40;6.30;;;;;;;3.02;77.27;100419.10;104308;1104;77939;-66
2021/05/04 01:00:57;;;;;;;9.10;6.20;;;;;;;2.98;77.23;100416.71;104257;1104;77868;-70
2021/05/04 01:03:03;;;;;;;7.30;5.10;;;;;;;2.95;77.44;100410.80;104305;1104;77393;-70
2021/05/04 01:05:11;;;;;;;7.00;5.00;;;;;;;2.99;77.21;100414.89;104156;1104;78660;-65
2021/05/04 01:07:16;;;;;;;9.10;4.80;;;;;;;3.03;77.33;100418.09;104684;1104;78466;-65
2021/05/04 01:09:25;;;;;;;11.80;5.70;;;;;;;2.83;77.52;100380.75;104540;1104;77278;-66
2021/05/04 01:11:30;;;;;;;8.80;5.60;;;;;;;3.05;77.35;100413.48;104307;1104;77170;-64
2021/05/04 01:13:35;;;;;;;9.80;6.00;;;;;;;3.06;77.23;100420.48;104363;1098;77962;-66
2021/05/04 01:15:42;;;;;;;8.30;5.30;;;;;;;3.06;77.42;100423.16;104301;1104;76967;-64
2021/05/04 01:17:47;;;;;;;8.00;5.20;;;;;;;3.06;77.67;100417.82;104289;1104;77849;-64
2021/05/04 01:19:52;;;;;;;7.50;4.70;;;;;;;3.09;77.48;100417.55;104280;1104;77034;-71
2021/05/04 01:21:57;;;;;;;11.20;5.60;;;;;;;3.08;77.55;100413.20;104319;1104;78025;-71
2021/05/04 01:24:04;;;;;;;8.60;5.20;;;;;;;3.09;77.55;100421.06;104321;1104;77259;-70
2021/05/04 01:26:09;;;;;;;10.40;6.30;;;;;;;3.10;77.44;100425.42;104307;1100;76824;-71
2021/05/04 01:28:14;;;;;;;7.30;5.20;;;;;;;3.12;77.55;100422.60;104316;1104;77865;-70
2021/05/04 01:30:21;;;;;;;7.70;5.10;;;;;;;3.12;77.44;100419.94;104328;1099;76926;-65
2021/05/04 01:32:29;;;;;;;8.30;5.20;;;;;;;3.11;77.66;100429.76;104316;1104;77022;-66
2021/05/04 01:34:34;;;;;;;11.00;5.90;;;;;;;3.13;77.46;100424.30;104314;1099;79489;-70
2021/05/04 01:36:39;;;;;;;8.80;5.40;;;;;;;3.12;77.56;100425.27;104323;1099;78701;-71
2021/05/04 01:38:45;;;;;;;10.00;5.60;;;;;;;3.10;77.60;100433.43;104353;1097;79253;-71
2021/05/04 01:40:50;;;;;;;8.30;5.20;;;;;;;3.11;77.65;100429.76;104297;1104;78898;-67
2021/05/04 01:42:55;;;;;;;8.60;5.50;;;;;;;3.13;77.75;100430.45;104319;1104;79369;-67
2021/05/04 01:45:03;;;;;;;8.30;5.30;;;;;;;3.13;77.52;100429.64;104318;1105;78673;-67
2021/05/04 01:47:08;;;;;;;8.50;5.30;;;;;;;3.11;77.59;100423.58;104303;1104;77443;-67
2021/05/04 01:49:14;;;;;;;9.00;5.40;;;;;;;3.07;77.51;100430.19;104335;1104;78428;-67
2021/05/04 01:51:19;;;;;;;10.50;5.50;;;;;;;3.03;77.37;100418.95;104293;1104;78522;-70
2021/05/04 01:53:24;;;;;;;9.90;6.10;;;;;;;3.08;77.47;100416.70;104332;1104;77875;-70
2021/05/04 01:55:29;;;;;;;7.70;5.20;;;;;;;3.07;77.47;100411.52;104302;1104;78986;-66
2021/05/04 01:57:34;;;;;;;8.70;5.60;;;;;;;3.04;77.59;100414.45;104313;1104;76932;-66
2021/05/04 01:59:42;;;;;;;7.20;5.20;;;;;;;3.00;77.41;100403.22;104314;1104;78468;-67
2021/05/04 02:01:47;;;;;;;9.90;5.70;;;;;;;2.96;77.47;100405.34;104323;1104;77950;-67
2021/05/04 02:03:52;;;;;;;9.70;5.60;;;;;;;2.86;77.76;100396.48;104338;1105;77617;-67
2021/05/04 02:05:57;;;;;;;11.00;6.10;;;;;;;2.82;77.52;100396.91;104330;1104;77761;-67
2021/05/04 02:08:03;;;;;;;9.60;6.10;;;;;;;2.78;77.49;100392.82;104311;1105;77251;-67
2021/05/04 02:10:11;;;;;;;7.70;5.50;;;;;;;2.72;77.52;100390.73;104313;1099;78086;-70
2021/05/04 02:12:19;;;;;;;9.90;5.40;;;;;;;2.67;77.64;100393.80;104328;1104;78206;-71
2021/05/04 02:14:25;;;;;;;8.50;6.10;;;;;;;2.64;77.74;100398.56;104316;1104;78886;-70
2021/05/04 02:16:30;;;;;;;7.70;5.70;;;;;;;2.54;77.66;100395.05;104310;1098;77505;-71
2021/05/04 02:18:35;;;;;;;7.80;5.70;;;;;;;2.38;77.89;100380.45;104307;1104;77743;-70
2021/05/04 02:20:40;;;;;;;9.60;5.40;;;;;;;2.33;77.92;100395.17;104279;1104;77692;-70
2021/05/04 02:22:46;;;;;;;7.20;5.50;;;;;;;2.28;77.74;100384.08;104281;1099;78963;-71
2021/05/04 02:24:54;;;;;;;9.20;5.80;;;;;;;2.25;78.03;100381.69;104324;1104;77731;-71
2021/05/04 02:27:01;;;;;;;9.90;5.70;;;;;;;2.20;77.88;100381.23;104317;1104;78280;-72
2021/05/04 02:29:06;;;;;;;7.30;4.90;;;;;;;2.16;77.90;100386.01;104343;1099;78319;-71
2021/05/04 02:31:12;;;;;;;8.20;5.20;;;;;;;2.13;77.74;100386.28;104304;1105;77578;-71
2021/05/04 02:33:21;;;;;;;8.10;5.10;;;;;;;2.09;78.14;100386.66;104304;1105;77068;-71
2021/05/04 02:35:26;;;;;;;7.30;5.30;;;;;;;2.05;78.17;100390.59;104285;1099;76922;-72
2021/05/04 02:37:32;;;;;;;7.80;5.00;;;;;;;2.06;78.56;100386.97;104250;1104;78548;-72
2021/05/04 02:39:37;;;;;;;8.50;5.40;;;;;;;2.03;78.40;100389.89;104294;1104;79019;-68
2021/05/04 02:41:42;;;;;;;11.10;6.20;;;;;;;2.02;78.10;100391.70;104314;1104;77661;-67
2021/05/04 02:43:47;;;;;;;10.40;6.60;;;;;;;2.03;78.37;100388.08;104285;1104;78864;-67
2021/05/04 02:45:53;;;;;;;10.10;5.70;;;;;;;2.08;78.70;100387.66;104308;1099;78702;-71
2021/05/04 02:47:58;;;;;;;10.50;6.20;;;;;;;2.14;78.90;100379.95;104277;1104;77973;-71
2021/05/04 02:50:05;;;;;;;11.50;7.00;;;;;;;2.21;78.56;100382.92;104268;1104;79089;-69
2021/05/04 02:52:10;;;;;;;10.40;6.50;;;;;;;2.24;78.92;100387.98;104333;1104;78062;-71
2021/05/04 02:54:15;;;;;;;10.20;6.30;;;;;;;2.25;78.95;100389.68;104322;1099;79395;-71
2021/05/04 02:56:21;;;;;;;10.00;5.90;;;;;;;2.24;78.91;100382.66;104308;1104;77869;-71
2021/05/04 02:58:26;;;;;;;11.90;6.50;;;;;;;2.25;78.95;100384.35;104279;1104;76950;-71
2021/05/04 03:00:32;;;;;;;10.30;6.90;;;;;;;2.32;78.98;100380.14;104302;1104;77687;-71
2021/05/04 03:02:40;;;;;;;11.50;6.70;;;;;;;2.35;78.76;100382.54;104300;1098;78497;-71
2021/05/04 03:04:45;;;;;;;11.30;7.30;;;;;;;2.35;78.82;100374.55;104292;1105;77312;-68
2021/05/04 03:06:50;;;;;;;13.10;7.40;;;;;;;2.36;78.78;100368.25;104293;1104;78555;-67
2021/05/04 03:08:55;;;;;;;11.70;7.20;;;;;;;2.36;78.79;100362.91;104289;1100;76772;-67
2021/05/04 03:11:00;;;;;;;10.60;7.30;;;;;;;2.44;78.70;100359.55;104333;1105;78339;-68
2021/05/04 03:13:05;;;;;;;13.60;7.20;;;;;;;2.50;78.82;100364.33;104273;1104;79248;-68
2021/05/04 03:15:15;;;;;;;11.20;7.00;;;;;;;2.53;78.89;100364.06;104337;1104;77381;-68
2021/05/04 03:17:23;;;;;;;10.90;6.30;;;;;;;2.55;78.77;100372.75;104320;1104;78651;-68
2021/05/04 03:19:29;;;;;;;9.90;6.30;;;;;;;2.54;78.82;100366.57;104303;1104;78080;-72
2021/05/04 03:21:34;;;;;;;14.20;6.90;;;;;;;2.57;78.81;100360.97;104285;1104;78505;-72
2021/05/04 03:23:39;;;;;;;12.50;7.20;;;;;;;2.63;78.79;100367.56;104312;1104;78569;-72
2021/05/04 03:25:48;;;;;;;11.00;7.00;;;;;;;2.66;78.85;100367.29;104347;1104;77722;-72
2021/05/04 03:27:57;;;;;;;11.00;7.10;;;;;;;2.73;78.71;100373.73;104295;1104;77148;-72
2021/05/04 03:30:02;;;;;;;10.00;6.30;;;;;;;2.75;78.65;100372.61;104340;1105;77561;-71
2021/05/04 03:32:08;;;;;;;10.70;7.00;;;;;;;2.76;78.66;100374.30;104314;1099;78271;-73
2021/05/04 03:34:13;;;;;;;13.10;6.70;;;;;;;2.80;78.58;100373.03;104344;1098;76904;-72
2021/05/04 03:36:18;;;;;;;12.60;6.90;;;;;;;2.83;78.70;100377.27;104313;1104;78017;-67
2021/05/04 03:38:23;;;;;;;12.60;6.60;;;;;;;2.94;78.74;100374.42;104296;1104;78679;-66
2021/05/04 03:40:29;;;;;;;10.70;7.40;;;;;;;3.02;78.55;100377.26;104254;1104;78427;-70
2021/05/04 03:42:34;;;;;;;11.00;6.60;;;;;;;3.08;78.71;100365.17;104318;1099;77892;-72
2021/05/04 03:44:40;;;;;;;11.20;6.70;;;;;;;3.27;78.72;100376.64;104336;1104;77819;-71
2021/05/04 03:46:45;;;;;;;12.80;7.50;;;;;;;4.14;79.44;100370.02;104329;1098;78988;-72
2021/05/04 03:48:50;;;;;;;10.00;6.60;;;;;;;5.52;79.29;100361.39;104325;1104;77918;-70
2021/05/04 03:50:58;;;;;;;11.00;6.70;;;;;;;6.76;78.31;100358.03;104292;1104;78106;-71
2021/05/04 03:53:03;;;;;;;10.00;6.90;;;;;;;7.88;77.24;100358.97;104287;1105;78996;-71
2021/05/04 03:55:11;;;;;;;12.10;6.60;;;;;;;8.73;76.40;100358.92;104321;1104;78208;-70
2021/05/04 03:57:17;;;;;;;11.90;6.60;;;;;;;9.62;74.81;100344.67;104252;1099;78072;-70
2021/05/04 03:59:25;;;;;;;9.00;5.80;;;;;;;10.42;73.70;100352.85;104291;1099;78768;-70
2021/05/04 04:01:32;;;;;;;7.90;5.90;;;;;;;11.24;72.20;100346.02;104348;1099;78114;-68
2021/05/04 04:03:37;;;;;;;10.90;6.50;;;;;;;11.92;70.51;100347.19;104286;1104;77999;-68
2021/05/04 04:05:43;;;;;;;9.50;5.90;;;;;;;12.37;69.60;100347.42;104297;1104;78284;-72
2021/05/04 04:07:51;;;;;;;9.50;6.00;;;;;;;12.78;67.47;100332.95;104308;1104;78648;-72
2021/05/04 04:09:56;;;;;;;8.70;6.80;;;;;;;13.29;66.65;100342.25;104319;1104;77268;-71
2021/05/04 04:12:01;;;;;;;8.10;5.60;;;;;;;13.27;65.30;100340.76;104305;1099;78261;-71
2021/05/04 04:14:06;;;;;;;7.50;5.30;;;;;;;13.17;63.87;100338.47;104293;1104;77926;-71
2021/05/04 04:16:12;;;;;;;7.60;5.30;;;;;;;12.46;62.23;100347.24;104307;1104;77537;-71
2021/05/04 04:18:17;;;;;;;9.40;6.00;;;;;;;12.01;62.89;100344.11;104299;1104;77476;-70
2021/05/04 04:20:22;;;;;;;8.40;5.70;;;;;;;11.76;62.57;100332.08;104299;1104;78263;-66
2021/05/04 04:22:30;;;;;;;8.80;5.90;;;;;;;11.40;62.44;100337.63;104290;1104;76861;-67
2021/05/04 04:24:36;;;;;;;8.30;5.80;;;;;;;11.33;62.77;100331.34;104313;1104;79510;-67
2021/05/04 04:26:44;;;;;;;7.70;5.20;;;;;;;11.42;62.69;100329.33;104273;1099;77814;-67
2021/05/04 04:28:49;;;;;;;7.50;5.80;;;;;;;11.85;62.08;100320.07;104282;1104;78513;-67
2021/05/04 04:30:54;;;;;;;7.20;5.30;;;;;;;12.53;61.82;100323.70;104301;1104;77869;-70
2021/05/04 04:33:00;;;;;;;8.60;5.60;;;;;;;13.40;60.97;100322.63;104308;1104;77494;-70
2021/05/04 04:35:11;;;;;;;8.50;5.70;;;;;;;14.15;59.85;100315.77;104293;1104;78294;-70
2021/05/04 04:37:16;;;;;;;7.50;5.10;;;;;;;14.71;58.71;100321.41;104343;1104;77680;-70
2021/05/04 04:39:25;;;;;;;8.60;6.10;;;;;;;15.54;57.15;100317.48;104326;1104;79260;-70
2021/05/04 04:41:34;;;;;;;8.10;5.20;;;;;;;16.29;56.80;100318.12;104310;1104;77740;-70
2021/05/04 04:43:39;;;;;;;7.10;4.90;;;;;;;16.92;54.63;100313.93;104300;1104;78302;-70
2021/05/04 04:45:44;;;;;;;9.40;5.80;;;;;;;16.27;53.82;100310.19;104316;1104;78066;-70
2021/05/04 04:47:49;;;;;;;7.10;5.50;;;;;;;15.40;54.47;100309.61;104296;1104;77006;-70
2021/05/04 04:49:58;;;;;;;9.10;5.70;;;;;;;14.82;54.01;100317.16;104315;1104;79809;-69
2021/05/04 04:52:07;;;;;;;8.30;5.30;;;;;;;14.62;54.49;100311.83;104298;1104;78641;-67
2021/05/04 04:54:13;;;;;;;7.10;5.10;;;;;;;14.51;53.45;100318.79;104340;1104;77391;-67
2021/05/04 04:56:18;;;;;;;8.30;5.90;;;;;;;14.08;54.32;100323.96;104347;1105;77543;-71
2021/05/04 04:58:23;;;;;;;8.00;5.20;;;;;;;15.33;54.18;100318.66;104316;1104;79458;-70
2021/05/04 05:00:28;;;;;;;8.40;5.50;;;;;;;15.97;52.99;100319.34;104302;1099;78430;-70
2021/05/04 05:02:33;;;;;;;8.30;5.70;;;;;;;16.53;52.27;100319.97;104314;1104;80406;-70
2021/05/04 05:04:41;;;;;;;7.90;5.30;;;;;;;17.02;51.28;100316.95;104308;1100;77138;-69
2021/05/04 05:06:46;;;;;;;6.50;4.90;;;;;;;17.52;48.88;100311.09;104317;1104;78436;-70
2021/05/04 05:08:52;;;;;;;7.30;5.20;;;;;;;17.97;48.78;100309.44;104260;1104;78058;-71
2021/05/04 05:11:00;;;;;;;6.50;5.00;;;;;;;18.35;47.25;100305.34;104309;1104;77647;-70
2021/05/04 05:13:08;;;;;;;7.80;5.30;;;;;;;19.35;46.23;100306.41;104321;1104;77067;-71
2021/05/04 05:15:15;;;;;;;6.70;4.70;;;;;;;20.04;45.54;100305.03;104313;1104;78912;-68
2021/05/04 05:17:21;;;;;;;6.50;5.00;;;;;;;19.92;44.72;100302.40;104311;1104;78027;-68
2021/05/04 05:19:26;;;;;;;6.90;5.00;;;;;;;20.18;44.54;100297.27;104308;1104;79716;-68
2021/05/04 05:21:35;;;;;;;7.00;4.80;;;;;;;20.39;43.21;100290.97;104332;1098;79108;-68
2021/05/04 05:23:40;;;;;;;6.90;5.10;;;;;;;20.75;42.52;100294.95;104318;1104;78019;-67
2021/05/04 05:25:46;;;;;;;6.90;4.70;;;;;;;20.91;41.95;100303.09;104327;1104;78267;-66
2021/05/04 05:27:51;;;;;;;6.80;4.40;;;;;;;21.17;39.82;100295.97;104278;1104;78257;-67
2021/05/04 05:29:57;;;;;;;7.40;5.00;;;;;;;21.22;38.99;100298.75;104302;1104;78596;-69
2021/05/04 05:32:02;;;;;;;5.80;4.70;;;;;;;21.06;40.03;100302.42;104330;1104;78390;-67
2021/05/04 05:34:08;;;;;;;5.00;4.50;;;;;;;20.93;38.96;100292.66;104286;1104;78558;-67
2021/05/04 05:36:13;;;;;;;6.50;4.40;;;;;;;20.97;39.91;100287.49;104305;1105;78452;-68
2021/05/04 05:38:18;;;;;;;8.10;4.70;;;;;;;21.04;39.42;100294.42;104289;1104;78879;-70
2021/05/04 05:40:23;;;;;;;6.60;4.70;;;;;;;21.42;38.91;100292.61;104266;1104;77980;-72
2021/05/04 05:42:29;;;;;;;5.80;4.50;;;;;;;22.33;38.36;100281.06;104304;1104;78414;-71
2021/05/04 05:44:34;;;;;;;7.60;4.60;;;;;;;22.38;37.90;100282.20;104256;1104;78922;-69
2021/05/04 05:46:42;;;;;;;5.60;4.20;;;;;;;22.66;36.49;100273.52;104328;1099;78723;-70
2021/05/04 05:48:47;;;;;;;9.20;4.30;;;;;;;22.85;36.36;100278.22;104285;1104;77575;-71
2021/05/04 05:50:52;;;;;;;7.00;4.40;;;;;;;22.77;36.64;100280.70;104336;1104;77865;-67
2021/05/04 05:52:58;;;;;;;5.30;4.20;;;;;;;23.23;36.12;100270.56;104286;1098;78665;-66
2021/05/04 05:55:04;;;;;;;5.10;4.10;;;;;;;23.26;35.74;100272.77;104306;1104;78802;-62
2021/05/04 05:57:09;;;;;;;4.40;3.90;;;;;;;23.46;34.17;100264.50;104317;1098;77172;-62
2021/05/04 05:59:14;;;;;;;5.90;4.20;;;;;;;23.49;35.16;100264.78;104283;1104;78605;-63
2021/05/04 06:01:20;;;;;;;5.00;3.80;;;;;;;23.53;34.37;100262.30;104301;1104;77584;-71
2021/05/04 06:03:27;;;;;;;5.20;3.90;;;;;;;23.45;34.43;100254.59;104310;1099;79197;-72
2021/05/04 06:05:33;;;;;;;5.10;3.30;;;;;;;23.79;34.35;100254.79;104306;1104;79528;-72
2021/05/04 06:07:38;;;;;;;5.90;4.50;;;;;;;23.75;33.78;100253.71;104294;1104;78798;-73
2021/05/04 06:09:43;;;;;;;5.30;4.00;;;;;;;24.12;33.17;100254.17;104303;1104;77929;-63
2021/05/04 06:11:48;;;;;;;4.30;3.40;;;;;;;24.32;33.10;100251.34;104279;1104;78475;-61
2021/05/04 06:13:53;;;;;;;5.70;3.80;;;;;;;23.98;32.84;100256.67;104287;1099;78463;-62
2021/05/04 06:16:00;;;;;;;4.60;3.90;;;;;;;24.16;32.34;100251.68;104287;1104;79020;-62
2021/05/04 06:18:06;;;;;;;5.70;4.10;;;;;;;24.22;32.41;100247.80;104296;1104;77321;-62
2021/05/04 06:20:15;;;;;;;4.60;3.70;;;;;;;23.32;32.02;100253.17;104311;1105;79192;-63
2021/05/04 06:22:20;;;;;;;4.50;3.40;;;;;;;23.06;32.23;100251.53;104321;1104;77326;-63
2021/05/04 06:24:26;;;;;;;4.50;2.90;;;;;;;22.58;33.07;100247.28;104085;1108;78500;-63
2021/05/04 06:26:34;;;;;;;4.70;4.10;;;;;;;22.52;33.39;100244.81;104288;1104;79106;-63
2021/05/04 06:28:40;;;;;;;5.90;4.10;;;;;;;22.60;33.37;100236.84;104273;1104;77754;-61
2021/05/04 06:30:45;;;;;;;5.30;3.80;;;;;;;23.19;32.70;100239.13;104281;1105;79212;-63
2021/05/04 06:32:54;;;;;;;6.40;3.80;;;;;;;23.36;33.24;100228.64;104306;1104;78502;-63
2021/05/04 06:34:59;;;;;;;5.20;3.50;;;;;;;23.54;32.22;100225.33;104345;1101;76765;-63
2021/05/04 06:37:04;;;;;;;4.00;3.30;;;;;;;23.33;32.25;100224.52;104264;1104;78551;-62
2021/05/04 06:39:09;;;;;;;6.20;3.70;;;;;;;22.50;32.26;100227.71;104333;1104;78855;-61
2021/05/04 06:41:14;;;;;;;4.10;2.90;;;;;;;22.50;32.80;100223.03;104293;1104;77473;-61
2021/05/04 06:43:22;;;;;;;8.00;3.40;;;;;;;22.87;31.33;100220.11;104304;1099;78343;-62
2021/05/04 06:45:27;;;;;;;5.20;3.30;;;;;;;22.79;31.78;100207.72;104293;1104;79199;-72
2021/05/04 06:47:32;;;;;;;5.50;3.80;;;;;;;23.21;32.49;100201.11;104286;1104;78358;-71
2021/05/04 06:49:39;;;;;;;4.20;3.00;;;;;;;22.94;31.78;100204.13;104312;1104;78844;-72
2021/05/04 06:51:44;;;;;;;3.70;2.90;;;;;;;22.57;31.19;100204.34;104316;1104;78257;-72
2021/05/04 06:53:49;;;;;;;6.20;3.10;;;;;;;22.82;30.89;100201.66;104292;1104;77719;-73
2021/05/04 06:55:55;;;;;;;3.70;2.70;;;;;;;22.93;30.42;100196.98;104303;1098;77770;-74
2021/05/04 06:58:00;;;;;;;6.30;3.30;;;;;;;22.76;31.63;100191.73;104310;1104;77035;-70
2021/05/04 07:00:08;;;;;;;6.00;3.10;;;;;;;22.97;31.35;100186.21;104288;1104;78673;-68
2021/05/04 07:02:13;;;;;;;5.10;3.00;;;;;;;23.64;30.86;100183.95;104306;1104;78373;-67
2021/05/04 07:04:19;;;;;;;4.80;3.00;;;;;;;23.67;30.71;100180.64;104305;1100;77878;-68
2021/05/04 07:06:27;;;;;;;3.80;2.80;;;;;;;23.87;30.69;100180.55;104282;1100;78640;-67
2021/05/04 07:08:32;;;;;;;4.20;3.10;;;;;;;24.17;30.48;100185.16;104287;1104;78687;-65
2021/05/04 07:10:38;;;;;;;4.90;2.90;;;;;;;24.31;30.05;100182.61;104311;1104;78636;-72
2021/05/04 07:12:44;;;;;;;13.70;12.00;;;;;;;24.14;29.95;100180.20;104334;1099;77323;-68
2021/05/04 07:14:49;;;;;;;5.20;4.00;;;;;;;24.22;29.32;100171.33;104321;1104;77538;-68
2021/05/04 07:16:54;;;;;;;4.00;3.10;;;;;;;24.35;29.81;100169.86;104266;1104;77518;-71
2021/05/04 07:18:59;;;;;;;3.60;2.80;;;;;;;24.47;29.29;100168.42;104351;1104;78522;-70
2021/05/04 07:21:08;;;;;;;5.50;3.10;;;;;;;24.72;29.80;100170.18;104245;1104;78372;-65
2021/05/04 07:23:16;;;;;;;3.60;2.80;;;;;;;24.61;29.31;100165.84;104314;1104;78522;-64
2021/05/04 07:25:21;;;;;;;4.30;2.70;;;;;;;24.90;29.33;100165.91;104311;1104;79074;-71
2021/05/04 07:27:27;;;;;;;3.40;2.40;;;;;;;24.98;28.70;100162.52;104361;1099;78470;-70
2021/05/04 07:29:32;;;;;;;4.60;2.80;;;;;;;25.40;28.73;100156.31;104304;1104;77408;-66
2021/05/04 07:31:37;;;;;;;3.50;2.70;;;;;;;25.65;28.64;100147.77;104277;1104;78531;-65
2021/05/04 07:33:42;;;;;;;6.20;3.50;;;;;;;25.63;28.05;100152.75;104279;1104;78187;-66
2021/05/04 07:35:48;;;;;;;3.30;2.30;;;;;;;25.34;27.95;100147.24;104273;1104;79801;-68
2021/05/04 07:37:55;;;;;;;3.20;2.20;;;;;;;24.84;26.74;100143.02;104309;1105;77243;-68
2021/05/04 07:40:00;;;;;;;3.80;2.50;;;;;;;24.43;28.00;100145.23;104281;1104;77437;-72
2021/05/04 07:42:07;;;;;;;5.10;2.70;;;;;;;24.47;28.29;100148.25;104289;1104;77082;-71
2021/05/04 07:44:12;;;;;;;4.30;3.20;;;;;;;24.88;28.69;100137.74;104316;1104;78583;-70
2021/05/04 07:46:17;;;;;;;3.90;2.40;;;;;;;24.76;28.47;100134.48;104275;1104;78115;-65
2021/05/04 07:48:23;;;;;;;3.20;2.60;;;;;;;24.59;27.78;100121.91;104351;1104;78948;-64
2021/05/04 07:50:29;;;;;;;3.30;2.50;;;;;;;24.97;27.52;100128.52;104287;1104;78514;-66
2021/05/04 07:52:35;;;;;;;3.20;2.20;;;;;;;25.44;27.63;100113.93;104261;1104;78050;-66
2021/05/04 07:54:41;;;;;;;4.50;2.60;;;;;;;25.84;24.74;100115.42;104310;1098;78053;-70
2021/05/04 07:56:46;;;;;;;3.20;2.30;;;;;;;25.76;26.41;100114.15;104302;1104;78603;-71
2021/05/04 07:58:53;;;;;;;2.90;2.40;;;;;;;25.70;26.48;100095.95;104294;1099;78281;-72
2021/05/04 08:00:58;;;;;;;2.70;2.30;;;;;;;25.99;25.90;100100.53;104358;1104;77407;-73
2021/05/04 08:03:04;;;;;;;2.90;2.00;;;;;;;26.35;25.41;100096.98;104290;1104;79183;-71
2021/05/04 08:05:12;;;;;;;3.10;2.00;;;;;;;26.54;25.98;100096.13;104309;1104;77114;-74
2021/05/04 08:07:18;;;;;;;2.80;2.00;;;;;;;26.64;26.00;100082.13;104292;1104;78262;-71
2021/05/04 08:09:25;;;;;;;4.00;2.10;;;;;;;26.49;25.62;100094.28;104330;1104;78729;-66
2021/05/04 08:11:31;;;;;;;2.20;2.00;;;;;;;25.94;24.62;100086.77;104270;1104;78125;-69
2021/05/04 08:13:37;;;;;;;2.80;2.10;;;;;;;25.60;25.69;100092.50;104287;1100;77819;-69
2021/05/04 08:15:42;;;;;;;2.90;2.10;;;;;;;25.28;25.44;100086.73;104339;1104;77754;-66
2021/05/04 08:17:53;;;;;;;4.10;2.20;;;;;;;25.25;26.12;100082.63;104287;1105;80348;-67
2021/05/04 08:20:00;;;;;;;3.50;2.20;;;;;;;25.34;25.97;100077.27;104300;1104;78062;-66
2021/05/04 08:22:05;;;;;;;5.90;3.10;;;;;;;25.07;25.30;100078.69;104335;1104;79046;-66
2021/05/04 08:24:12;;;;;;;3.60;2.30;;;;;;;24.72;26.31;100081.77;104301;1104;78579;-65
2021/05/04 08:26:18;;;;;;;3.80;2.10;;;;;;;24.97;26.58;100073.23;104343;1104;77111;-66
2021/05/04 08:28:26;;;;;;;2.50;2.10;;;;;;;24.96;25.54;100073.55;104261;1100;79444;-68
2021/05/04 08:30:34;;;;;;;3.50;2.00;;;;;;;24.14;24.42;100080.83;104336;1105;77900;-67
2021/05/04 08:32:41;;;;;;;2.60;2.00;;;;;;;23.71;25.24;100065.86;104298;1098;78830;-67
2021/05/04 08:34:46;;;;;;;3.60;1.90;;;;;;;23.26;25.84;100060.52;104286;1104;79307;-71
2021/05/04 08:36:53;;;;;;;2.50;1.90;;;;;;;23.17;26.33;100063.02;104301;1104;78370;-72
2021/05/04 08:38:59;;;;;;;2.50;1.90;;;;;;;23.50;26.33;100061.55;104273;1105;80915;-71
2021/05/04 08:41:09;;;;;;;2.80;2.10;;;;;;;23.20;25.12;100051.44;104308;1104;78999;-67
2021/05/04 08:43:21;;;;;;;3.00;1.80;;;;;;;22.99;26.34;100049.02;104294;1104;78770;-65
2021/05/04 08:45:31;;;;;;;4.50;2.90;;;;;;;23.00;25.48;100061.67;104309;1101;77791;-66
2021/05/04 08:47:37;;;;;;;2.80;1.90;;;;;;;22.65;25.93;100065.31;104329;1104;77729;-65
2021/05/04 08:49:43;;;;;;;3.60;2.00;;;;;;;22.31;25.46;100056.73;104367;1098;78236;-66
2021/05/04 08:51:52;;;;;;;3.10;2.20;;;;;;;21.75;24.96;100047.56;104330;1104;76909;-65
2021/05/04 08:53:58;;;;;;;2.80;2.30;;;;;;;21.46;27.07;100043.59;104336;1099;78562;-66
2021/05/04 08:56:04;;;;;;;4.20;2.20;;;;;;;21.48;26.60;100044.17;104381;1104;78850;-72
2021/05/04 08:58:09;;;;;;;3.30;2.30;;;;;;;21.61;26.36;100043.66;104279;1104;78115;-71
2021/05/04 09:00:18;;;;;;;3.10;2.00;;;;;;;21.77;27.35;100031.61;104262;1104;79050;-72
2021/05/04 09:02:24;;;;;;;2.40;2.20;;;;;;;22.28;27.31;100040.77;104308;1104;78288;-72
2021/05/04 09:04:37;;;;;;;3.30;2.30;;;;;;;22.28;26.80;100032.52;104309;1104;78733;-71
2021/05/04 09:06:46;;;;;;;4.70;2.00;;;;;;;22.55;26.81;100019.29;104314;1104;79320;-72
2021/05/04 09:09:02;;;;;;;3.50;2.30;;;;;;;23.14;26.65;100019.48;104275;1104;76882;-73
2021/05/04 09:11:29;;;;;;;2.60;1.90;;;;;;;23.76;26.73;100021.69;104314;1104;78627;-75
2021/05/04 09:13:53;;;;;;;4.00;2.30;;;;;;;23.97;24.18;100005.84;104304;1104;77870;-75
2021/05/04 09:16:23;;;;;;;3.80;2.40;;;;;;;24.04;26.20;100006.33;104285;1099;76901;-66
2021/05/04 09:18:52;;;;;;;2.80;2.40;;;;;;;24.24;25.57;100003.45;104282;1104;78965;-65
2021/05/04 09:21:01;;;;;;;4.00;2.00;;;;;;;23.85;24.07;99988.80;104320;1104;78082;-67
2021/05/04 09:23:10;;;;;;;3.10;2.20;;;;;;;23.69;24.84;99993.61;104333;1104;77715;-65
2021/05/04 09:25:34;;;;;;;3.50;2.00;;;;;;;23.55;25.66;99988.99;104305;1104;79535;-65
2021/05/04 09:27:57;;;;;;;2.80;2.20;;;;;;;23.53;26.18;99971.91;104331;1104;77482;-65
2021/05/04 09:30:04;;;;;;;3.80;1.90;;;;;;;23.42;25.19;99984.94;104310;1104;78571;-66
2021/05/04 09:32:18;;;;;;;3.60;1.80;;;;;;;23.01;25.87;99977.92;104313;1104;78313;-66
2021/05/04 09:34:23;;;;;;;3.10;1.90;;;;;;;22.37;24.70;99973.08;104298;1104;77295;-68
2021/05/04 09:36:54;;;;;;;3.30;2.00;;;;;;;21.77;25.38;99962.86;104299;1099;78918;-65
2021/05/04 09:39:00;;;;;;;3.10;1.80;;;;;;;21.37;26.94;99973.77;104134;1104;77762;-67
2021/05/04 09:41:31;;;;;;;5.00;3.30;;;;;;;20.86;25.65;99983.67;104316;1104;77677;-71
2021/05/04 09:43:40;;;;;;;4.40;2.50;;;;;;;20.26;26.21;99962.99;104302;1104;77101;-71
2021/05/04 09:45:50;;;;;;;3.20;2.20;;;;;;;20.19;27.79;99967.03;104318;1104;78516;-71
2021/05/04 09:48:20;;;;;;;3.90;2.40;;;;;;;20.18;28.00;99960.70;104331;1104;78010;-72